"WATCHING THE WEATHER TO PROTECT LIFE AND PROPERTY"


Aviation
Satellite (InfraRed)


KFLL 180153Z AUTO 05003KT 10SM CLR 21/18 A3017 RMK AO2 SLP216 T02060178
KMCO 180153Z 36004KT 10SM BKN300 15/11 A3020 RMK AO2 SLP226 T01500111
KMIA 180153Z 12005KT 10SM FEW035 SCT250 21/17 A3018 RMK AO2 SLP220 T02110172
KTPA 180153Z 34003KT 10SM FEW200 13/07 A3022 RMK AO2 SLP232 T01330067
MDPP 180200Z 00000KT 9999 FEW016 19/19 Q1019
MDSD 180200Z 04004KT 9999 BKN016 SCT070 22/21 Q1018
MKJS 180200Z VRB01KT 9999 FEW022 25/19 Q11017
MTPP 180100Z 04003KT 8000 FEW022 SCT040 26/21 Q1016 A3002
MUHA 180155Z 01007KT 9000 SCT020 21/19 Q1021
MYNN 180200Z 07005KT 9999 SCT035 22/14 A3018 RMK PKWND 9KT
TAPA 180200Z 00000KT 9999 FEW020 22/18 Q1018 NOSIG
TFFF 180200Z AUTO VRB03KT CAVOK 21/18 Q1018 NOSIG
TFFR 180200Z AUTO VRB02KT CAVOK 20/18 Q1018 NOSIG
TIST 180153Z AUTO 09003KT 10SM CLR 24/20 A3009 RMK AO2 SLP188 T02440200
TISX 180153Z AUTO 01004KT 10SM CLR 22/21 A3009 RMK AO2 SLP188 T02220206 PNO
TJSJ 180156Z 00000KT 10SM FEW040 SCT095 23/20 A3010 RMK AO2 SLP192 T02280200 $
TKPK 180100Z VRB02KT 9999 FEW022 24/19 Q1018
TNCA 180200Z 09014KT 9999 FEW018 26/22 Q1015 NOSIG
TNCB 180155Z AUTO 09014KT 060V120 9999 FEW018/// 26/21 Q1015
TNCC 180200Z AUTO 10014KT 9999 NCD 26/21 Q1015 NOSIG
TNCE 180155Z AUTO 05007KT //// // ///////// 23/19 Q1019 RE//
TNCM 180200Z 07003KT CAVOK 23/19 Q1019 RMK A3009
TQPF 172300Z 06003KT 9999 FEW020 23/18 Q1018
TUPJ 180200Z 07004KT 10SM FEW024 24/20 A3010 RMK Q1019